createdAt,value
2018-04-12T00:00:55.539Z,9.77
2018-04-12T00:03:23.150Z,10.37
2018-04-12T00:05:51.509Z,10.10
2018-04-12T00:08:19.141Z,10.40
2018-04-12T00:10:46.732Z,12.60
2018-04-12T00:13:15.103Z,11.20
2018-04-12T00:15:42.722Z,10.83
2018-04-12T00:18:10.319Z,15.57
2018-04-12T00:20:37.951Z,12.90
2018-04-12T00:23:05.546Z,15.03
2018-04-12T00:25:33.138Z,13.20
2018-04-12T00:28:00.750Z,10.90
2018-04-12T00:30:28.339Z,12.93
2018-04-12T00:32:56.734Z,11.77
2018-04-12T00:35:25.086Z,13.63
2018-04-12T00:37:52.678Z,10.40
2018-04-12T00:40:20.289Z,14.03
2018-04-12T00:42:47.882Z,10.00
2018-04-12T00:45:16.258Z,13.30
2018-04-12T00:47:44.629Z,16.57
2018-04-12T00:50:12.255Z,11.07
2018-04-12T00:52:39.845Z,13.87
2018-04-12T00:55:07.467Z,14.47
2018-04-12T00:57:35.136Z,15.63
2018-04-12T01:00:02.748Z,17.13
2018-04-12T01:02:31.110Z,14.37
2018-04-12T01:04:58.722Z,15.27
2018-04-12T01:07:26.311Z,18.10
2018-04-12T01:09:53.926Z,11.40
2018-04-12T01:12:21.511Z,9.40
2018-04-12T01:14:49.132Z,13.23
2018-04-12T01:17:17.502Z,14.03
2018-04-12T01:19:45.858Z,12.53
2018-04-12T01:22:13.478Z,12.07
2018-04-12T01:24:41.062Z,15.50
2018-04-12T01:27:08.683Z,15.40
2018-04-12T01:29:36.280Z,12.40
2018-04-12T01:32:03.906Z,14.77
2018-04-12T01:34:31.501Z,14.30
2018-04-12T01:36:59.124Z,12.80
2018-04-12T01:39:27.478Z,9.47
2018-04-12T01:41:55.094Z,15.50
2018-04-12T01:44:22.678Z,12.97
2018-04-12T01:46:50.299Z,15.10
2018-04-12T01:49:17.887Z,13.30
2018-04-12T01:51:45.506Z,20.13
2018-04-12T01:54:13.094Z,15.20
2018-04-12T01:56:40.710Z,13.43
2018-04-12T01:59:09.065Z,17.23
2018-04-12T02:01:36.679Z,13.50
2018-04-12T02:04:04.262Z,12.10
2018-04-12T02:06:31.882Z,16.77
2018-04-12T02:09:00.234Z,12.70
2018-04-12T02:11:27.842Z,14.90
2018-04-12T02:13:55.451Z,15.10
2018-04-12T02:16:23.084Z,14.20
2018-04-12T02:18:50.684Z,16.40
2018-04-12T02:21:18.270Z,14.30
2018-04-12T02:23:45.882Z,14.60
2018-04-12T02:26:13.470Z,13.03
2018-04-12T02:28:41.851Z,9.53
2018-04-12T02:31:10.202Z,10.80
2018-04-12T02:33:37.827Z,17.60
2018-04-12T02:36:05.415Z,14.03
2018-04-12T02:38:33.070Z,11.97
2018-04-12T02:41:00.689Z,14.70
2018-04-12T02:43:29.038Z,15.30
2018-04-12T02:45:56.652Z,16.53
2018-04-12T02:48:24.239Z,12.67
2018-04-12T02:50:51.862Z,13.33
2018-04-12T02:53:19.448Z,19.93
2018-04-12T02:55:47.059Z,23.80
2018-04-12T02:58:15.406Z,21.03
2018-04-12T03:00:43.014Z,23.80
2018-04-12T03:03:10.592Z,17.30
2018-04-12T03:05:38.210Z,14.30
2018-04-12T03:08:05.793Z,17.00
2018-04-12T03:10:33.406Z,16.97
2018-04-12T03:13:00.986Z,17.20
2018-04-12T03:15:28.594Z,14.13
2018-04-12T03:17:56.177Z,17.07
2018-04-12T03:20:23.786Z,18.10
2018-04-12T03:22:52.136Z,14.80
2018-04-12T03:25:19.765Z,15.30
2018-04-12T03:27:47.358Z,24.20
2018-04-12T03:30:14.974Z,21.00
2018-04-12T03:32:42.567Z,16.63
2018-04-12T03:35:10.173Z,18.90
2018-04-12T03:37:38.524Z,17.77
2018-04-12T03:40:06.136Z,15.20
2018-04-12T03:42:33.726Z,21.43
2018-04-12T03:45:01.346Z,25.57
2018-04-12T03:47:28.935Z,19.90
2018-04-12T03:49:56.547Z,12.67
2018-04-12T03:52:24.906Z,17.10
2018-04-12T03:54:52.528Z,16.53
2018-04-12T03:57:20.118Z,18.50
2018-04-12T03:59:47.701Z,19.40
2018-04-12T04:02:16.092Z,22.87
2018-04-12T04:04:44.442Z,15.23
2018-04-12T04:07:12.063Z,21.50
2018-04-12T04:09:39.654Z,21.50
2018-04-12T04:12:07.262Z,17.13
2018-04-12T04:18:02.350Z,18.77
2018-04-12T04:20:43.344Z,29.20
2018-04-12T04:23:10.919Z,21.60
2018-04-12T04:25:38.508Z,21.10
2018-04-12T04:28:06.124Z,20.10
2018-04-12T04:30:34.486Z,21.53
2018-04-12T04:33:02.112Z,21.13
2018-04-12T04:35:29.703Z,23.40
2018-04-12T04:37:57.326Z,23.27
2018-04-12T04:40:24.914Z,28.00
2018-04-12T04:42:52.534Z,16.83
2018-04-12T04:45:20.117Z,22.00
2018-04-12T04:47:47.736Z,18.60
2018-04-12T04:50:16.095Z,25.27
2018-04-12T04:52:43.720Z,26.70
2018-04-12T04:55:11.305Z,26.40
2018-04-12T04:57:38.906Z,22.30
2018-04-12T05:00:06.522Z,29.00
2018-04-12T05:02:34.118Z,31.93
2018-04-12T05:05:02.503Z,26.03
2018-04-12T05:07:30.107Z,26.70
2018-04-12T05:09:57.717Z,25.43
2018-04-12T05:12:26.344Z,29.73
2018-04-12T05:14:53.989Z,27.80
2018-04-12T05:17:21.571Z,36.10
2018-04-12T05:19:49.158Z,27.63
2018-04-12T05:22:16.776Z,24.50
2018-04-12T05:24:44.371Z,28.27
2018-04-12T05:27:12.008Z,29.07
2018-04-12T05:29:39.606Z,26.83
2018-04-12T05:32:07.226Z,29.80
2018-04-12T05:34:34.889Z,29.27
2018-04-12T05:37:02.511Z,31.73
2018-04-12T05:39:30.874Z,24.67
2018-04-12T05:41:58.498Z,23.53
2018-04-12T05:44:26.087Z,27.77
2018-04-12T05:46:53.698Z,26.53
2018-04-12T05:49:21.296Z,26.07
2018-04-12T05:51:48.917Z,27.40
2018-04-12T05:54:17.715Z,30.30
2018-04-12T05:56:45.335Z,37.77
2018-04-12T05:59:13.695Z,24.67
2018-04-12T06:01:41.311Z,24.20
2018-04-12T06:04:08.903Z,27.57
2018-04-12T06:06:36.535Z,27.63
2018-04-12T06:09:04.131Z,26.23
2018-04-12T06:11:32.488Z,26.37
2018-04-12T06:14:00.101Z,24.27
2018-04-12T06:16:28.471Z,27.53
2018-04-12T06:18:56.900Z,22.50
2018-04-12T06:21:24.503Z,24.30
2018-04-12T06:23:52.886Z,23.73
2018-04-12T06:26:21.237Z,27.17
2018-04-12T06:28:48.846Z,30.20
2018-04-12T06:31:16.442Z,23.03
2018-04-12T06:33:44.091Z,23.67
2018-04-12T06:36:11.681Z,26.57
2018-04-12T06:38:39.274Z,29.40
2018-04-12T06:41:07.653Z,25.03
2018-04-12T06:43:36.016Z,26.63
2018-04-12T06:46:03.630Z,23.13
2018-04-12T06:48:31.218Z,25.53
2018-04-12T06:50:58.838Z,25.90
2018-04-12T06:53:26.440Z,30.60
2018-04-12T06:55:54.071Z,29.73
2018-04-12T06:58:21.662Z,27.27
2018-04-12T07:00:49.266Z,26.73
2018-04-12T07:03:17.654Z,21.93
2018-04-12T07:05:45.242Z,23.33
2018-04-12T07:08:12.877Z,26.60
2018-04-12T07:10:40.470Z,26.90
2018-04-12T07:13:08.087Z,33.27
2018-04-12T07:15:36.445Z,29.70
2018-04-12T07:18:04.842Z,30.30
2018-04-12T07:20:32.441Z,21.10
2018-04-12T07:23:00.026Z,26.60
2018-04-12T07:25:27.650Z,26.10
2018-04-12T07:27:55.246Z,25.37
2018-04-12T07:30:22.883Z,31.13
2018-04-12T07:32:50.478Z,26.27
2018-04-12T07:35:18.082Z,26.03
2018-04-12T07:37:45.700Z,26.20
2018-04-12T07:40:14.079Z,25.50
2018-04-12T07:42:41.694Z,27.40
2018-04-12T07:45:09.287Z,24.03
2018-04-12T07:47:36.906Z,32.43
2018-04-12T07:50:04.501Z,26.83
2018-04-12T07:52:32.148Z,25.93
2018-04-12T07:54:59.812Z,23.47
2018-04-12T07:57:27.463Z,28.93
2018-04-12T07:59:55.080Z,28.43
2018-04-12T08:02:23.436Z,28.73
2018-04-12T08:04:51.058Z,28.73
2018-04-12T08:07:18.659Z,34.70
2018-04-12T08:09:46.289Z,31.53
2018-04-12T08:12:13.984Z,25.20
2018-04-12T08:14:41.581Z,27.63
2018-04-12T08:17:09.203Z,30.27
2018-04-12T08:19:36.797Z,31.77
2018-04-12T08:22:05.188Z,30.20
2018-04-12T08:24:32.783Z,28.73
2018-04-12T08:27:00.379Z,27.93
2018-04-12T08:29:28.002Z,26.83
2018-04-12T08:31:57.686Z,31.10
2018-04-12T08:34:25.454Z,30.17
2018-04-12T08:36:53.078Z,29.97
2018-04-12T08:39:20.679Z,27.60
2018-04-12T08:41:48.298Z,25.20
2018-04-12T08:44:15.919Z,28.50
2018-04-12T08:46:43.578Z,26.30
2018-04-12T08:49:11.276Z,38.33
2018-04-12T08:51:40.374Z,28.53
2018-04-12T08:54:08.050Z,26.80
2018-04-12T08:56:36.416Z,34.20
2018-04-12T08:59:04.049Z,36.33
2018-04-12T09:01:31.652Z,23.83
2018-04-12T09:04:00.015Z,31.70
2018-04-12T09:06:27.639Z,28.60
2018-04-12T09:08:55.234Z,27.17
2018-04-12T09:11:22.862Z,26.00
2018-04-12T09:13:50.454Z,28.97
2018-04-12T09:16:18.050Z,27.83
2018-04-12T09:18:45.674Z,28.83
2018-04-12T09:21:13.274Z,28.07
2018-04-12T09:23:40.902Z,28.53
2018-04-12T09:26:08.750Z,30.30
2018-04-12T09:28:36.377Z,30.30
2018-04-12T09:31:04.006Z,27.03
2018-04-12T09:33:32.402Z,28.30
2018-04-12T09:36:00.020Z,29.63
2018-04-12T09:38:27.628Z,28.90
2018-04-12T09:40:55.255Z,28.77
2018-04-12T09:43:22.854Z,31.90
2018-04-12T09:45:50.466Z,26.10
2018-04-12T09:50:52.120Z,30.23
2018-04-12T09:53:19.718Z,27.90
2018-04-12T09:55:48.107Z,28.17
2018-04-12T09:58:16.647Z,25.60
2018-04-12T10:00:59.160Z,27.60
2018-04-12T10:03:26.762Z,28.27
2018-04-12T10:06:01.018Z,27.57
2018-04-12T10:08:28.618Z,28.60
2018-04-12T10:10:56.262Z,31.33
2018-04-12T10:13:24.275Z,32.90
2018-04-12T10:15:51.933Z,29.87
2018-04-12T10:18:20.469Z,27.00
2018-04-12T10:20:48.062Z,26.13
2018-04-12T10:23:16.459Z,30.90
2018-04-12T10:25:44.055Z,26.97
2018-04-12T10:28:11.683Z,22.37
2018-04-12T10:30:39.325Z,27.70
2018-04-12T10:33:06.898Z,31.60
2018-04-12T10:35:35.288Z,25.70
2018-04-12T10:38:02.891Z,28.93
2018-04-12T10:40:30.510Z,24.23
2018-04-12T10:42:58.118Z,28.97
2018-04-12T10:45:25.917Z,32.60
2018-04-12T10:47:54.278Z,26.87
2018-04-12T10:50:22.675Z,35.53
2018-04-12T10:52:51.038Z,27.20
2018-04-12T10:55:18.641Z,26.77
2018-04-12T10:57:46.264Z,23.80
2018-04-12T11:00:14.622Z,29.83
2018-04-12T11:02:42.246Z,22.07
2018-04-12T11:05:09.914Z,25.23
2018-04-12T11:07:39.689Z,22.83
2018-04-12T11:10:07.724Z,22.13
2018-04-12T11:12:35.592Z,23.00
2018-04-12T11:15:03.560Z,18.43
2018-04-12T11:17:31.428Z,21.90
2018-04-12T11:19:59.193Z,25.83
2018-04-12T11:22:27.051Z,26.23
2018-04-12T11:24:54.938Z,24.57
2018-04-12T11:27:23.605Z,24.53
2018-04-12T11:29:51.492Z,25.07
2018-04-12T11:32:20.166Z,32.07
2018-04-12T11:34:47.999Z,26.67
2018-04-12T11:37:15.997Z,26.40
2018-04-12T11:39:43.753Z,23.90
2018-04-12T11:42:11.819Z,29.60
2018-04-12T11:44:39.438Z,27.37
2018-04-12T11:47:07.035Z,24.73
2018-04-12T11:49:34.674Z,19.00
2018-04-12T11:52:02.284Z,27.47
2018-04-12T11:54:30.658Z,22.13
2018-04-12T11:56:58.287Z,29.00
2018-04-12T11:59:25.884Z,27.60
2018-04-12T12:01:53.517Z,25.27
2018-04-12T12:04:21.112Z,27.07
2018-04-12T12:06:50.206Z,27.57
2018-04-12T12:09:19.339Z,29.40
2018-04-12T12:11:46.942Z,29.93
2018-04-12T12:14:14.576Z,25.30
2018-04-12T12:16:42.175Z,26.10
2018-04-12T12:19:09.771Z,27.97
2018-04-12T12:21:38.164Z,29.00
2018-04-12T12:24:05.758Z,28.13
2018-04-12T12:26:33.383Z,34.80
2018-04-12T12:29:00.978Z,27.80
2018-04-12T12:31:28.583Z,24.30
2018-04-12T12:33:56.986Z,25.40
2018-04-12T12:36:24.588Z,27.93
2018-04-12T12:38:52.231Z,30.50
2018-04-12T12:41:19.831Z,29.57
2018-04-12T12:43:47.476Z,23.97
2018-04-12T12:46:15.095Z,28.00
2018-04-12T12:48:42.702Z,24.67
2018-04-12T12:51:10.568Z,28.03
2018-04-12T12:53:38.167Z,25.60
2018-04-12T12:56:06.589Z,27.40
2018-04-12T12:58:34.174Z,27.00
2018-04-12T13:01:02.033Z,24.50
2018-04-12T13:03:29.939Z,24.20
2018-04-12T13:05:58.445Z,24.80
2018-04-12T13:08:26.044Z,26.40
2018-04-12T13:10:53.640Z,23.63
2018-04-12T13:13:21.303Z,28.93
2018-04-12T13:15:48.896Z,27.73
2018-04-12T13:18:16.525Z,21.70
2018-04-12T13:20:44.884Z,26.40
2018-04-12T13:23:12.485Z,26.63
2018-04-12T13:25:40.138Z,26.87
2018-04-12T13:28:07.751Z,33.10
2018-04-12T13:30:35.380Z,23.40
2018-04-12T13:33:03.027Z,28.37
2018-04-12T13:35:31.406Z,26.73
2018-04-12T13:37:59.002Z,24.00
2018-04-12T13:40:26.610Z,27.03
2018-04-12T13:42:54.999Z,33.00
2018-04-12T13:45:22.604Z,25.47
2018-04-12T13:47:50.218Z,23.50
2018-04-12T13:50:18.581Z,22.33
2018-04-12T13:52:47.670Z,22.40
2018-04-12T13:55:15.323Z,25.10
2018-04-12T13:57:43.052Z,25.30
2018-04-12T14:00:10.659Z,31.40
2018-04-12T14:02:39.070Z,22.80
2018-04-12T14:05:06.666Z,27.03
2018-04-12T14:07:34.264Z,22.57
2018-04-12T14:10:02.656Z,24.40
2018-04-12T14:12:31.964Z,22.60
2018-04-12T14:14:59.616Z,17.20
2018-04-12T14:17:27.218Z,16.03
2018-04-12T14:19:54.844Z,28.03
2018-04-12T14:22:22.440Z,22.43
2018-04-12T14:24:50.065Z,27.40
2018-04-12T14:27:17.671Z,22.63
2018-04-12T14:29:45.345Z,24.33
2018-04-12T14:32:12.912Z,24.77
2018-04-12T14:34:40.537Z,27.77
2018-04-12T14:37:08.128Z,25.70
2018-04-12T14:39:35.866Z,22.83
2018-04-12T14:42:03.458Z,25.67
2018-04-12T14:44:31.081Z,26.27
2018-04-12T14:46:58.686Z,24.53
2018-04-12T14:49:26.306Z,25.70
2018-04-12T14:51:53.909Z,24.20
2018-04-12T14:54:22.271Z,27.50
2018-04-12T14:56:49.897Z,24.37
2018-04-12T14:59:17.491Z,25.27
2018-04-12T15:01:45.114Z,25.30
2018-04-12T15:04:12.714Z,31.37
2018-04-12T15:06:40.329Z,25.63
2018-04-12T15:09:07.922Z,25.57
2018-04-12T15:11:35.551Z,25.43
2018-04-12T15:14:03.286Z,27.30
2018-04-12T15:16:30.918Z,30.90
2018-04-12T15:18:58.538Z,24.57
2018-04-12T15:21:26.127Z,24.43
2018-04-12T15:23:53.758Z,24.63
2018-04-12T15:26:21.351Z,27.63
2018-04-12T15:28:49.006Z,25.27
2018-04-12T15:31:16.628Z,24.73
2018-04-12T15:33:44.225Z,30.80
2018-04-12T15:36:11.842Z,25.30
2018-04-12T15:38:40.205Z,28.90
2018-04-12T15:41:08.596Z,23.70
2018-04-12T15:43:36.961Z,25.03
2018-04-12T15:46:04.592Z,25.60
2018-04-12T15:48:32.184Z,23.30
2018-04-12T15:51:00.554Z,24.10
2018-04-12T15:53:28.171Z,32.50
2018-04-12T15:55:55.768Z,29.67
2018-04-12T15:58:23.398Z,31.47
2018-04-12T16:00:51.096Z,28.87
2018-04-12T16:03:18.830Z,28.43
2018-04-12T16:05:46.445Z,28.27
2018-04-12T16:08:14.802Z,23.27
2018-04-12T16:10:42.427Z,25.97
2018-04-12T16:13:10.020Z,25.80
2018-04-12T16:15:37.642Z,28.03
2018-04-12T16:18:05.240Z,42.30
2018-04-12T16:20:32.862Z,29.73
2018-04-12T16:23:00.460Z,31.60
2018-04-12T16:25:28.092Z,30.33
2018-04-12T16:27:55.686Z,26.37
2018-04-12T16:30:23.314Z,27.70
2018-04-12T16:32:50.915Z,32.23
2018-04-12T16:35:18.526Z,27.23
2018-04-12T16:37:46.127Z,29.47
2018-04-12T16:40:13.863Z,24.87
2018-04-12T16:42:41.458Z,30.50
2018-04-12T16:45:09.092Z,30.60
2018-04-12T16:47:36.711Z,27.00
2018-04-12T16:50:04.299Z,29.07
2018-04-12T16:52:31.923Z,23.80
2018-04-12T16:55:00.291Z,23.30
2018-04-12T16:57:28.693Z,28.97
2018-04-12T16:59:56.295Z,29.03
2018-04-12T17:02:23.928Z,25.50
2018-04-12T17:04:51.531Z,26.47
2018-04-12T17:07:19.172Z,30.70
2018-04-12T17:09:47.544Z,30.20
2018-04-12T17:12:15.198Z,28.13
2018-04-12T17:14:42.789Z,24.60
2018-04-12T17:17:10.410Z,24.90
2018-04-12T17:19:38.149Z,31.73
2018-04-12T17:22:06.793Z,25.10
2018-04-12T17:24:34.386Z,25.83
2018-04-12T17:27:02.767Z,28.63
2018-04-12T17:29:31.129Z,30.30
2018-04-12T17:31:58.762Z,30.70
2018-04-12T17:34:26.355Z,29.70
2018-04-12T17:36:54.737Z,29.40
2018-04-12T17:39:22.337Z,28.37
2018-04-12T17:41:49.926Z,27.80
2018-04-12T17:44:17.549Z,32.97
2018-04-12T17:46:45.149Z,28.47
2018-04-12T17:49:12.775Z,31.67
2018-04-12T17:51:40.374Z,28.93
2018-04-12T17:54:07.998Z,32.07
2018-04-12T17:56:35.586Z,31.40
2018-04-12T17:59:03.203Z,30.50
2018-04-12T18:01:31.570Z,30.90
2018-04-12T18:03:59.954Z,29.90
2018-04-12T18:06:27.585Z,25.93
2018-04-12T18:08:55.207Z,34.23
2018-04-12T18:11:22.806Z,36.83
2018-04-12T18:13:50.431Z,32.53
2018-04-12T18:16:18.020Z,32.93
2018-04-12T18:18:45.650Z,33.80
2018-04-12T18:21:13.250Z,28.50
2018-04-12T18:23:40.852Z,26.60
2018-04-12T18:26:09.245Z,34.47
2018-04-12T18:28:36.851Z,33.07
2018-04-12T18:31:04.470Z,33.07
2018-04-12T18:33:32.071Z,29.90
2018-04-12T18:36:00.459Z,27.40
2018-04-12T18:38:28.053Z,35.07
2018-04-12T18:40:55.749Z,32.83
2018-04-12T18:43:24.343Z,32.63
2018-04-12T18:45:51.966Z,34.37
2018-04-12T18:48:19.566Z,32.20
2018-04-12T18:50:47.200Z,27.50
2018-04-12T18:53:14.795Z,28.70
2018-04-12T18:55:43.185Z,28.73
2018-04-12T18:58:10.800Z,31.73
2018-04-12T19:00:38.438Z,27.23
2018-04-12T19:03:06.826Z,36.53
2018-04-12T19:05:34.441Z,29.23
2018-04-12T19:08:02.185Z,30.33
2018-04-12T19:10:29.777Z,34.43
2018-04-12T19:12:57.394Z,28.70
2018-04-12T19:15:24.986Z,30.00
2018-04-12T19:17:52.574Z,27.70
2018-04-12T19:20:20.966Z,33.13
2018-04-12T19:22:48.576Z,26.50
2018-04-12T19:25:16.221Z,32.73
2018-04-12T19:27:43.815Z,29.33
2018-04-12T19:30:11.437Z,33.30
2018-04-12T19:32:39.079Z,29.90
2018-04-12T19:35:07.462Z,28.57
2018-04-12T19:37:35.060Z,31.13
2018-04-12T19:40:02.688Z,30.17
2018-04-12T19:42:30.293Z,31.97
2018-04-12T19:44:58.727Z,27.40
2018-04-12T19:47:26.321Z,30.03
2018-04-12T19:49:53.921Z,28.80
2018-04-12T19:52:22.309Z,29.20
2018-04-12T19:54:50.711Z,27.00
2018-04-12T19:57:18.334Z,28.50
2018-04-12T19:59:46.702Z,31.13
2018-04-12T20:02:14.294Z,29.20
2018-04-12T20:04:41.914Z,30.60
2018-04-12T20:07:09.514Z,32.30
2018-04-12T20:09:37.137Z,29.67
2018-04-12T20:12:04.732Z,30.90
2018-04-12T20:14:32.363Z,29.17
2018-04-12T20:17:01.481Z,32.97
2018-04-12T20:19:29.877Z,29.23
2018-04-12T20:21:57.470Z,30.70
2018-04-12T20:24:25.074Z,32.13
2018-04-12T20:26:53.473Z,30.10
2018-04-12T20:29:21.069Z,33.23
2018-04-12T20:31:48.701Z,30.17
2018-04-12T20:34:16.294Z,30.60
2018-04-12T20:36:43.993Z,28.27
2018-04-12T20:39:11.591Z,32.70
2018-04-12T20:41:39.218Z,27.90
2018-04-12T20:44:07.587Z,29.80
2018-04-12T20:46:35.236Z,31.93
2018-04-12T20:49:02.872Z,29.70
2018-04-12T20:51:30.481Z,27.60
2018-04-12T20:53:58.843Z,27.87
2018-04-12T20:56:27.989Z,34.50
2018-04-12T20:58:55.595Z,27.50
2018-04-12T21:01:23.194Z,37.17
2018-04-12T21:03:50.825Z,30.80
2018-04-12T21:06:19.218Z,29.30
2018-04-12T21:08:47.610Z,32.80
2018-04-12T21:11:15.977Z,32.43
2018-04-12T21:13:44.380Z,29.03
2018-04-12T21:16:11.972Z,27.03
2018-04-12T21:18:39.596Z,29.30
2018-04-12T21:21:07.195Z,33.60
2018-04-12T21:23:35.077Z,32.60
2018-04-12T21:26:02.674Z,34.53
2018-04-12T21:28:31.321Z,29.97
2018-04-12T21:30:59.187Z,33.67
2018-04-12T21:33:27.023Z,29.90
2018-04-12T21:35:54.866Z,30.93
2018-04-12T21:38:22.689Z,29.00
2018-04-12T21:40:50.552Z,30.87
2018-04-12T21:43:18.417Z,28.73
2018-04-12T21:45:46.031Z,33.70
2018-04-12T21:48:13.970Z,29.43
2018-04-12T21:50:41.594Z,28.03
2018-04-12T21:53:09.182Z,30.43
2018-04-12T21:55:36.810Z,34.57
2018-04-12T21:58:04.402Z,29.53
2018-04-12T22:00:32.781Z,30.33
2018-04-12T22:03:01.887Z,27.77
2018-04-12T22:05:29.510Z,30.97
2018-04-12T22:07:57.100Z,29.17
2018-04-12T22:10:24.707Z,29.13
2018-04-12T22:12:52.322Z,31.70
2018-04-12T22:15:19.910Z,37.10
2018-04-12T22:17:48.304Z,30.50
2018-04-12T22:20:15.919Z,26.80
2018-04-12T22:22:43.542Z,30.40
2018-04-12T22:25:11.146Z,34.13
2018-04-12T22:27:38.774Z,32.57
2018-04-12T22:30:06.370Z,29.67
2018-04-12T22:32:33.992Z,31.00
2018-04-12T22:35:01.594Z,28.93
2018-04-12T22:37:29.998Z,31.87
2018-04-12T22:39:57.590Z,31.70
2018-04-12T22:42:25.206Z,37.03
2018-04-12T22:44:53.641Z,31.37
2018-04-12T22:47:21.263Z,34.20
2018-04-12T22:49:49.637Z,33.00
2018-04-12T22:52:18.026Z,28.40
2018-04-12T22:54:45.614Z,32.13
2018-04-12T22:57:13.231Z,37.23
2018-04-12T22:59:41.592Z,30.10
2018-04-12T23:02:09.210Z,33.33
2018-04-12T23:04:36.877Z,29.53
2018-04-12T23:07:04.462Z,29.90
2018-04-12T23:09:32.079Z,29.60
2018-04-12T23:11:59.669Z,27.87
2018-04-12T23:14:27.294Z,35.73
2018-04-12T23:16:54.894Z,36.33
2018-04-12T23:19:22.513Z,33.30
2018-04-12T23:21:50.106Z,27.53
2018-04-12T23:24:17.737Z,34.07
2018-04-12T23:26:46.098Z,29.13
2018-04-12T23:29:14.490Z,33.17
2018-04-12T23:31:42.094Z,32.50
2018-04-12T23:34:09.713Z,36.63
2018-04-12T23:36:37.407Z,30.63
2018-04-12T23:39:05.889Z,33.43
2018-04-12T23:41:33.481Z,39.67
2018-04-12T23:44:01.091Z,30.67
2018-04-12T23:46:28.694Z,31.57
2018-04-12T23:48:56.309Z,35.90
2018-04-12T23:51:23.914Z,28.10
2018-04-12T23:53:51.533Z,39.93
2018-04-12T23:56:19.127Z,32.00
2018-04-12T23:58:46.746Z,34.63
